FDA2061 RJNS-RJFT
Flight info
| Callsign | FDA2061 |
|---|---|
| Flight time | 1h 31m |
| Altitude | 32000 |
| Route | FUJIK GAKKI Y295 KCC Y28 ONDOC Y452 OOITA Y40 KAZMA |
| Aircraft | E170/M-SDE3GILORVW/S |
Departure
| Time | 2026-05-04 00:18 |
|---|---|
| Airport | Mount Fuji Shizuoka Airport (RJNS) |
Arrival
| Time | 2026-05-04 01:49 |
|---|---|
| Airport | Kumamoto Airport (RJFT) |
| Time | Latitude | Longitude | Altitude | Speed | Heading |
|---|---|---|---|---|---|
| 2026-05-03 23:42 | 34.79554 | 138.18095 | 460 ft | 0 kts | 201° |
| 2026-05-04 00:01 | 34.79561 | 138.18098 | 460 ft | 2 kts | 200° |
| 2026-05-04 00:01 | 34.79575 | 138.18106 | 459 ft | 2 kts | 200° |
| 2026-05-04 00:01 | 34.79590 | 138.18112 | 459 ft | 2 kts | 200° |
| 2026-05-04 00:02 | 34.79603 | 138.18120 | 459 ft | 2 kts | 196° |
| 2026-05-04 00:02 | 34.79618 | 138.18118 | 459 ft | 2 kts | 151° |
| 2026-05-04 00:02 | 34.79628 | 138.18105 | 460 ft | 2 kts | 110° |
| 2026-05-04 00:02 | 34.79633 | 138.18088 | 462 ft | 2 kts | 111° |
| 2026-05-04 00:03 | 34.79635 | 138.18082 | 462 ft | 0 kts | 111° |
| 2026-05-04 00:04 | 34.79634 | 138.18085 | 462 ft | 2 kts | 112° |
| 2026-05-04 00:04 | 34.79640 | 138.18127 | 459 ft | 7 kts | 53° |
| 2026-05-04 00:05 | 34.79665 | 138.18204 | 454 ft | 14 kts | 103° |
| 2026-05-04 00:05 | 34.79617 | 138.18353 | 439 ft | 23 kts | 112° |
| 2026-05-04 00:05 | 34.79541 | 138.18581 | 412 ft | 34 kts | 114° |
| 2026-05-04 00:05 | 34.79445 | 138.18870 | 400 ft | 38 kts | 112° |
| 2026-05-04 00:06 | 34.79345 | 138.19173 | 401 ft | 38 kts | 111° |
| 2026-05-04 00:06 | 34.79244 | 138.19473 | 396 ft | 40 kts | 111° |
| 2026-05-04 00:06 | 34.79152 | 138.19750 | 377 ft | 35 kts | 112° |
| 2026-05-04 00:06 | 34.79063 | 138.20016 | 377 ft | 19 kts | 111° |
| 2026-05-04 00:07 | 34.79048 | 138.20100 | 378 ft | 8 kts | 76° |
| 2026-05-04 00:07 | 34.79073 | 138.20140 | 381 ft | 3 kts | 36° |
| 2026-05-04 00:07 | 34.79086 | 138.20149 | 383 ft | 1 kts | 25° |
| 2026-05-04 00:07 | 34.79095 | 138.20154 | 383 ft | 1 kts | 23° |
| 2026-05-04 00:08 | 34.79099 | 138.20155 | 384 ft | 0 kts | 23° |
| 2026-05-04 00:15 | 34.79098 | 138.20155 | 384 ft | 0 kts | 23° |
| 2026-05-04 00:16 | 34.79099 | 138.20157 | 384 ft | 0 kts | 23° |
| 2026-05-04 00:16 | 34.79114 | 138.20165 | 385 ft | 3 kts | 23° |
| 2026-05-04 00:16 | 34.79150 | 138.20183 | 388 ft | 7 kts | 22° |
| 2026-05-04 00:16 | 34.79184 | 138.20177 | 391 ft | 3 kts | 315° |
| 2026-05-04 00:17 | 34.79194 | 138.20155 | 391 ft | 0 kts | 292° |
| 2026-05-04 00:17 | 34.79194 | 138.20154 | 391 ft | 2 kts | 292° |
| 2026-05-04 00:17 | 34.79283 | 138.19890 | 395 ft | 71 kts | 292° |
| 2026-05-04 00:17 | 34.79547 | 138.19095 | 421 ft | 131 kts | 291° |
| 2026-05-04 00:18 | 34.79926 | 138.17970 | 771 ft | 150 kts | 289° |
| 2026-05-04 00:18 | 34.80144 | 138.16727 | 1369 ft | 157 kts | 259° |
| 2026-05-04 00:18 | 34.79530 | 138.15657 | 2020 ft | 168 kts | 217° |
| 2026-05-04 00:18 | 34.78284 | 138.15366 | 2315 ft | 207 kts | 174° |
| 2026-05-04 00:19 | 34.77375 | 138.15852 | 2539 ft | 229 kts | 146° |
| 2026-05-04 00:19 | 34.76159 | 138.18193 | 3081 ft | 261 kts | 120° |
| 2026-05-04 00:19 | 34.75161 | 138.20085 | 3659 ft | 273 kts | 130° |
| 2026-05-04 00:19 | 34.73946 | 138.21927 | 4127 ft | 290 kts | 135° |
| 2026-05-04 00:20 | 34.72590 | 138.23770 | 4795 ft | 298 kts | 138° |
| 2026-05-04 00:20 | 34.71175 | 138.25597 | 5604 ft | 300 kts | 141° |
| 2026-05-04 00:20 | 34.69722 | 138.27426 | 6485 ft | 298 kts | 142° |
| 2026-05-04 00:20 | 34.68299 | 138.29198 | 7302 ft | 298 kts | 143° |
| 2026-05-04 00:21 | 34.66846 | 138.30997 | 8087 ft | 298 kts | 144° |
| 2026-05-04 00:21 | 34.65390 | 138.32794 | 8811 ft | 299 kts | 145° |
| 2026-05-04 00:21 | 34.63943 | 138.34576 | 9490 ft | 301 kts | 146° |
| 2026-05-04 00:21 | 34.62307 | 138.35959 | 10101 ft | 276 kts | 174° |
| 2026-05-04 00:22 | 34.60503 | 138.36113 | 10610 ft | 258 kts | 197° |
| 2026-05-04 00:22 | 34.58698 | 138.35797 | 11107 ft | 264 kts | 198° |
| 2026-05-04 00:22 | 34.56860 | 138.35440 | 11565 ft | 272 kts | 198° |
| 2026-05-04 00:22 | 34.54966 | 138.35059 | 11983 ft | 281 kts | 198° |
| 2026-05-04 00:23 | 34.53027 | 138.34659 | 12467 ft | 286 kts | 198° |
| 2026-05-04 00:23 | 34.51034 | 138.34381 | 12969 ft | 302 kts | 185° |
| 2026-05-04 00:23 | 34.48975 | 138.35226 | 13504 ft | 334 kts | 158° |
| 2026-05-04 00:23 | 34.47296 | 138.37326 | 14027 ft | 367 kts | 130° |
| 2026-05-04 00:24 | 34.46445 | 138.40277 | 14551 ft | 393 kts | 104° |
| 2026-05-04 00:24 | 34.46482 | 138.43658 | 15032 ft | 403 kts | 95° |
| 2026-05-04 00:24 | 34.46327 | 138.46983 | 15467 ft | 404 kts | 98° |
| 2026-05-04 00:24 | 34.46752 | 138.50313 | 15848 ft | 420 kts | 72° |
| 2026-05-04 00:25 | 34.48159 | 138.53236 | 16220 ft | 424 kts | 46° |
| 2026-05-04 00:25 | 34.50337 | 138.55347 | 16600 ft | 416 kts | 20° |
| 2026-05-04 00:25 | 34.52972 | 138.56334 | 17018 ft | 400 kts | 359° |
| 2026-05-04 00:25 | 34.55721 | 138.56805 | 17428 ft | 404 kts | 359° |
| 2026-05-04 00:26 | 34.58499 | 138.57272 | 17835 ft | 400 kts | 350° |
| 2026-05-04 00:26 | 34.61134 | 138.56747 | 18129 ft | 373 kts | 324° |
| 2026-05-04 00:26 | 34.63192 | 138.55119 | 18585 ft | 345 kts | 303° |
| 2026-05-04 00:26 | 34.64690 | 138.52920 | 19025 ft | 331 kts | 292° |
| 2026-05-04 00:27 | 34.65911 | 138.50583 | 19499 ft | 327 kts | 288° |
| 2026-05-04 00:27 | 34.67026 | 138.48219 | 19851 ft | 329 kts | 287° |
| 2026-05-04 00:27 | 34.68135 | 138.45761 | 20283 ft | 329 kts | 287° |
| 2026-05-04 00:27 | 34.69181 | 138.43298 | 20659 ft | 323 kts | 278° |
| 2026-05-04 00:28 | 34.69587 | 138.40724 | 21041 ft | 310 kts | 266° |
| 2026-05-04 00:28 | 34.69797 | 138.38135 | 21429 ft | 311 kts | 266° |
| 2026-05-04 00:28 | 34.70000 | 138.35498 | 21803 ft | 313 kts | 266° |
| 2026-05-04 00:28 | 34.70196 | 138.32886 | 22157 ft | 314 kts | 266° |
| 2026-05-04 00:29 | 34.70391 | 138.30247 | 22515 ft | 316 kts | 266° |
| 2026-05-04 00:29 | 34.70587 | 138.27579 | 22828 ft | 319 kts | 266° |
| 2026-05-04 00:29 | 34.70782 | 138.24898 | 23214 ft | 320 kts | 266° |
| 2026-05-04 00:29 | 34.70979 | 138.22201 | 23543 ft | 322 kts | 266° |
| 2026-05-04 00:30 | 34.71174 | 138.19510 | 23880 ft | 323 kts | 266° |
| 2026-05-04 00:30 | 34.71370 | 138.16798 | 24270 ft | 323 kts | 266° |
| 2026-05-04 00:30 | 34.71566 | 138.14088 | 24590 ft | 325 kts | 266° |
| 2026-05-04 00:30 | 34.71762 | 138.11342 | 24898 ft | 327 kts | 267° |
| 2026-05-04 00:31 | 34.71959 | 138.08603 | 25235 ft | 328 kts | 266° |
| 2026-05-04 00:31 | 34.72156 | 138.05847 | 25562 ft | 329 kts | 266° |
| 2026-05-04 00:31 | 34.72353 | 138.03065 | 25906 ft | 329 kts | 266° |
| 2026-05-04 00:31 | 34.72549 | 138.00310 | 26199 ft | 331 kts | 266° |
| 2026-05-04 00:32 | 34.72747 | 137.97514 | 26510 ft | 332 kts | 266° |
| 2026-05-04 00:32 | 34.72941 | 137.94751 | 26745 ft | 334 kts | 266° |
| 2026-05-04 00:32 | 34.73139 | 137.91928 | 27019 ft | 336 kts | 267° |
| 2026-05-04 00:32 | 34.73338 | 137.89098 | 27310 ft | 337 kts | 267° |
| 2026-05-04 00:33 | 34.73535 | 137.86267 | 27591 ft | 338 kts | 267° |
| 2026-05-04 00:33 | 34.73929 | 137.80583 | 28041 ft | 342 kts | 267° |
| 2026-05-04 00:33 | 34.74128 | 137.77713 | 28294 ft | 343 kts | 266° |
| 2026-05-04 00:34 | 34.74327 | 137.74812 | 28543 ft | 344 kts | 267° |
| 2026-05-04 00:34 | 34.74527 | 137.71931 | 28857 ft | 344 kts | 267° |
| 2026-05-04 00:34 | 34.75008 | 137.69063 | 29102 ft | 357 kts | 278° |
| 2026-05-04 00:34 | 34.76017 | 137.66231 | 29348 ft | 372 kts | 288° |
| 2026-05-04 00:35 | 34.77526 | 137.63585 | 29539 ft | 391 kts | 298° |
| 2026-05-04 00:35 | 34.79375 | 137.61128 | 29774 ft | 393 kts | 298° |
| 2026-05-04 00:35 | 34.81153 | 137.58624 | 30039 ft | 391 kts | 297° |
| 2026-05-04 00:35 | 34.82898 | 137.56088 | 30221 ft | 393 kts | 296° |
| 2026-05-04 00:36 | 34.84631 | 137.53538 | 30391 ft | 395 kts | 297° |
| 2026-05-04 00:36 | 34.86367 | 137.50981 | 30663 ft | 394 kts | 296° |
| 2026-05-04 00:36 | 34.88131 | 137.48375 | 30824 ft | 396 kts | 297° |
| 2026-05-04 00:36 | 34.89878 | 137.45792 | 31117 ft | 395 kts | 296° |
| 2026-05-04 00:37 | 34.91600 | 137.43242 | 31417 ft | 394 kts | 296° |
| 2026-05-04 00:37 | 34.93348 | 137.40655 | 31662 ft | 387 kts | 296° |
| 2026-05-04 00:37 | 34.95026 | 137.38164 | 31708 ft | 388 kts | 296° |
| 2026-05-04 00:38 | 34.98501 | 137.33002 | 31739 ft | 399 kts | 296° |
| 2026-05-04 00:38 | 35.02058 | 137.27714 | 31742 ft | 409 kts | 296° |
| 2026-05-04 00:39 | 35.05695 | 137.22302 | 31735 ft | 415 kts | 296° |
| 2026-05-04 00:39 | 35.09428 | 137.16841 | 31732 ft | 421 kts | 296° |
| 2026-05-04 00:40 | 35.13179 | 137.11348 | 31729 ft | 420 kts | 296° |
| 2026-05-04 00:40 | 35.16867 | 137.05937 | 31720 ft | 413 kts | 296° |
| 2026-05-04 00:41 | 35.20535 | 137.00494 | 31716 ft | 415 kts | 296° |
| 2026-05-04 00:41 | 35.23634 | 136.94788 | 31726 ft | 391 kts | 282° |
| 2026-05-04 00:42 | 35.24895 | 136.88519 | 31720 ft | 376 kts | 269° |
| 2026-05-04 00:42 | 35.24997 | 136.85410 | 31730 ft | 362 kts | 258° |
| 2026-05-04 00:42 | 35.24588 | 136.82423 | 31730 ft | 356 kts | 251° |
| 2026-05-04 00:43 | 35.23207 | 136.76625 | 31730 ft | 357 kts | 251° |
| 2026-05-04 00:43 | 35.21887 | 136.70811 | 31735 ft | 357 kts | 251° |
| 2026-05-04 00:44 | 35.20565 | 136.64963 | 31734 ft | 358 kts | 250° |
| 2026-05-04 00:44 | 35.19246 | 136.59131 | 31750 ft | 356 kts | 251° |
| 2026-05-04 00:45 | 35.17921 | 136.53285 | 31742 ft | 358 kts | 251° |
| 2026-05-04 00:45 | 35.16590 | 136.47437 | 31750 ft | 359 kts | 250° |
| 2026-05-04 00:46 | 35.15255 | 136.41574 | 31742 ft | 357 kts | 251° |
| 2026-05-04 00:46 | 35.13914 | 136.35700 | 31738 ft | 360 kts | 250° |
| 2026-05-04 00:47 | 35.12582 | 136.29892 | 31755 ft | 358 kts | 250° |
| 2026-05-04 00:47 | 35.11237 | 136.24010 | 31752 ft | 358 kts | 251° |
| 2026-05-04 00:48 | 35.09911 | 136.18185 | 31760 ft | 360 kts | 250° |
| 2026-05-04 00:48 | 35.08562 | 136.12274 | 31753 ft | 362 kts | 250° |
| 2026-05-04 00:49 | 35.07221 | 136.06415 | 31759 ft | 360 kts | 250° |
| 2026-05-04 00:49 | 35.05872 | 136.00548 | 31749 ft | 359 kts | 251° |
| 2026-05-04 00:50 | 35.04515 | 135.94688 | 31747 ft | 362 kts | 251° |
| 2026-05-04 00:50 | 35.03148 | 135.88802 | 31736 ft | 360 kts | 250° |
| 2026-05-04 00:51 | 35.01784 | 135.82942 | 31746 ft | 360 kts | 250° |
| 2026-05-04 00:51 | 35.00666 | 135.76999 | 31739 ft | 361 kts | 252° |
| 2026-05-04 00:52 | 34.99573 | 135.71075 | 31742 ft | 359 kts | 253° |
| 2026-05-04 00:52 | 34.98481 | 135.65184 | 31746 ft | 358 kts | 253° |
| 2026-05-04 00:53 | 34.97381 | 135.59274 | 31749 ft | 359 kts | 253° |
| 2026-05-04 00:53 | 34.96281 | 135.53383 | 31759 ft | 358 kts | 253° |
| 2026-05-04 00:54 | 34.95174 | 135.47469 | 31763 ft | 359 kts | 253° |
| 2026-05-04 00:54 | 34.94072 | 135.41599 | 31766 ft | 355 kts | 253° |
| 2026-05-04 00:55 | 34.92970 | 135.35747 | 31763 ft | 358 kts | 252° |
| 2026-05-04 00:55 | 34.91819 | 135.29864 | 31783 ft | 356 kts | 251° |
| 2026-05-04 00:56 | 34.90678 | 135.24040 | 31781 ft | 353 kts | 252° |
| 2026-05-04 00:56 | 34.89544 | 135.18266 | 31795 ft | 355 kts | 251° |
| 2026-05-04 00:57 | 34.88394 | 135.12418 | 31786 ft | 354 kts | 252° |
| 2026-05-04 00:57 | 34.87247 | 135.06612 | 31781 ft | 353 kts | 251° |
| 2026-05-04 00:58 | 34.86104 | 135.00841 | 31780 ft | 353 kts | 252° |
| 2026-05-04 00:58 | 34.85009 | 134.95055 | 31774 ft | 350 kts | 252° |
| 2026-05-04 00:59 | 34.83926 | 134.89267 | 31769 ft | 352 kts | 253° |
| 2026-05-04 00:59 | 34.82842 | 134.83482 | 31777 ft | 353 kts | 252° |
| 2026-05-04 01:00 | 34.81748 | 134.77672 | 31768 ft | 354 kts | 252° |
| 2026-05-04 01:00 | 34.80657 | 134.71892 | 31779 ft | 353 kts | 252° |
| 2026-05-04 01:01 | 34.79565 | 134.66119 | 31782 ft | 351 kts | 252° |
| 2026-05-04 01:01 | 34.78451 | 134.60309 | 31780 ft | 354 kts | 253° |
| 2026-05-04 01:02 | 34.77329 | 134.54501 | 31782 ft | 352 kts | 252° |
| 2026-05-04 01:02 | 34.76205 | 134.48697 | 31782 ft | 355 kts | 252° |
| 2026-05-04 01:03 | 34.75084 | 134.42883 | 31778 ft | 353 kts | 253° |
| 2026-05-04 01:03 | 34.73975 | 134.37073 | 31780 ft | 355 kts | 253° |
| 2026-05-04 01:04 | 34.72857 | 134.31232 | 31801 ft | 354 kts | 252° |
| 2026-05-04 01:04 | 34.71749 | 134.25458 | 31812 ft | 354 kts | 252° |
| 2026-05-04 01:05 | 34.70623 | 134.19597 | 31815 ft | 355 kts | 252° |
| 2026-05-04 01:05 | 34.69512 | 134.13818 | 31811 ft | 354 kts | 252° |
| 2026-05-04 01:06 | 34.68391 | 134.08006 | 31816 ft | 355 kts | 253° |
| 2026-05-04 01:06 | 34.67262 | 134.02171 | 31815 ft | 353 kts | 251° |
| 2026-05-04 01:07 | 34.65631 | 133.96617 | 31817 ft | 350 kts | 247° |
| 2026-05-04 01:07 | 34.63933 | 133.91107 | 31821 ft | 350 kts | 247° |
| 2026-05-04 01:08 | 34.62217 | 133.85544 | 31823 ft | 353 kts | 247° |
| 2026-05-04 01:08 | 34.60500 | 133.79987 | 31821 ft | 348 kts | 246° |
| 2026-05-04 01:09 | 34.58794 | 133.74480 | 31816 ft | 352 kts | 246° |
| 2026-05-04 01:09 | 34.57082 | 133.68965 | 31820 ft | 351 kts | 246° |
| 2026-05-04 01:10 | 34.55362 | 133.63431 | 31814 ft | 350 kts | 246° |
| 2026-05-04 01:10 | 34.53587 | 133.57915 | 31814 ft | 351 kts | 245° |
| 2026-05-04 01:11 | 34.51787 | 133.52437 | 31816 ft | 352 kts | 246° |
| 2026-05-04 01:11 | 34.49978 | 133.46939 | 31823 ft | 351 kts | 246° |
| 2026-05-04 01:12 | 34.48172 | 133.41463 | 31822 ft | 351 kts | 246° |
| 2026-05-04 01:12 | 34.46414 | 133.36015 | 31823 ft | 350 kts | 247° |
| 2026-05-04 01:13 | 34.44693 | 133.30498 | 31845 ft | 351 kts | 246° |
| 2026-05-04 01:13 | 34.42970 | 133.24994 | 31846 ft | 350 kts | 247° |
| 2026-05-04 01:14 | 34.41249 | 133.19508 | 31850 ft | 350 kts | 246° |
| 2026-05-04 01:14 | 34.39516 | 133.14032 | 31850 ft | 351 kts | 246° |
| 2026-05-04 01:15 | 34.37780 | 133.08578 | 31850 ft | 350 kts | 246° |
| 2026-05-04 01:15 | 34.36021 | 133.03064 | 31851 ft | 350 kts | 246° |
| 2026-05-04 01:16 | 34.34285 | 132.97630 | 31853 ft | 350 kts | 247° |
| 2026-05-04 01:16 | 34.32529 | 132.92143 | 31852 ft | 349 kts | 247° |
| 2026-05-04 01:17 | 34.30788 | 132.86684 | 31851 ft | 349 kts | 246° |
| 2026-05-04 01:17 | 34.29060 | 132.81201 | 31852 ft | 349 kts | 246° |
| 2026-05-04 01:18 | 34.27335 | 132.75732 | 31859 ft | 351 kts | 247° |
| 2026-05-04 01:18 | 34.25601 | 132.70252 | 31855 ft | 349 kts | 246° |
| 2026-05-04 01:19 | 34.23874 | 132.64803 | 31855 ft | 349 kts | 246° |
| 2026-05-04 01:19 | 34.22126 | 132.59299 | 31873 ft | 351 kts | 247° |
| 2026-05-04 01:20 | 34.19839 | 132.54213 | 31601 ft | 346 kts | 232° |
| 2026-05-04 01:20 | 34.18169 | 132.52142 | 31217 ft | 340 kts | 228° |
| 2026-05-04 01:20 | 34.16481 | 132.50127 | 31237 ft | 344 kts | 229° |
| 2026-05-04 01:20 | 34.14798 | 132.48100 | 31401 ft | 345 kts | 229° |
| 2026-05-04 01:21 | 34.13103 | 132.46051 | 31699 ft | 342 kts | 230° |
| 2026-05-04 01:21 | 34.11436 | 132.44034 | 31856 ft | 337 kts | 229° |
| 2026-05-04 01:21 | 34.09779 | 132.42029 | 31786 ft | 343 kts | 229° |
| 2026-05-04 01:21 | 34.08105 | 132.40004 | 31427 ft | 344 kts | 229° |
| 2026-05-04 01:22 | 34.06408 | 132.37952 | 31052 ft | 341 kts | 229° |
| 2026-05-04 01:22 | 34.04759 | 132.35959 | 30680 ft | 339 kts | 228° |
| 2026-05-04 01:22 | 34.03095 | 132.33949 | 30324 ft | 338 kts | 228° |
| 2026-05-04 01:22 | 34.01442 | 132.31955 | 29959 ft | 336 kts | 228° |
| 2026-05-04 01:23 | 33.99782 | 132.29952 | 29586 ft | 335 kts | 227° |
| 2026-05-04 01:23 | 33.98150 | 132.27985 | 29220 ft | 334 kts | 227° |
| 2026-05-04 01:23 | 33.96510 | 132.26010 | 28851 ft | 334 kts | 227° |
| 2026-05-04 01:23 | 33.94878 | 132.24045 | 28486 ft | 331 kts | 227° |
| 2026-05-04 01:24 | 33.93266 | 132.22104 | 28124 ft | 329 kts | 227° |
| 2026-05-04 01:24 | 33.91561 | 132.20253 | 27747 ft | 329 kts | 221° |
| 2026-05-04 01:24 | 33.89577 | 132.18860 | 27392 ft | 333 kts | 213° |
| 2026-05-04 01:24 | 33.87513 | 132.17653 | 27032 ft | 330 kts | 214° |
| 2026-05-04 01:25 | 33.85445 | 132.16438 | 26668 ft | 331 kts | 213° |
| 2026-05-04 01:25 | 33.83371 | 132.15222 | 26298 ft | 331 kts | 213° |
| 2026-05-04 01:25 | 33.81329 | 132.14024 | 25936 ft | 326 kts | 213° |
| 2026-05-04 01:25 | 33.79295 | 132.12834 | 25580 ft | 325 kts | 214° |
| 2026-05-04 01:26 | 33.77260 | 132.11641 | 25215 ft | 327 kts | 213° |
| 2026-05-04 01:26 | 33.75243 | 132.10460 | 24854 ft | 322 kts | 214° |
| 2026-05-04 01:26 | 33.73214 | 132.09271 | 24497 ft | 322 kts | 213° |
| 2026-05-04 01:26 | 33.71208 | 132.08098 | 24145 ft | 319 kts | 213° |
| 2026-05-04 01:27 | 33.69210 | 132.06932 | 23796 ft | 317 kts | 213° |
| 2026-05-04 01:27 | 33.67250 | 132.05785 | 23454 ft | 315 kts | 213° |
| 2026-05-04 01:27 | 33.65287 | 132.04637 | 23106 ft | 312 kts | 213° |
| 2026-05-04 01:27 | 33.63327 | 132.03493 | 22757 ft | 311 kts | 213° |
| 2026-05-04 01:28 | 33.61394 | 132.02365 | 22421 ft | 314 kts | 214° |
| 2026-05-04 01:28 | 33.59433 | 132.01221 | 22073 ft | 308 kts | 213° |
| 2026-05-04 01:28 | 33.57516 | 132.00104 | 21738 ft | 306 kts | 213° |
| 2026-05-04 01:28 | 33.55629 | 131.99005 | 21406 ft | 305 kts | 214° |
| 2026-05-04 01:29 | 33.53692 | 131.97875 | 21064 ft | 304 kts | 213° |
| 2026-05-04 01:29 | 33.51808 | 131.96779 | 20722 ft | 303 kts | 214° |
| 2026-05-04 01:29 | 33.49921 | 131.95682 | 20391 ft | 303 kts | 214° |
| 2026-05-04 01:29 | 33.48019 | 131.94574 | 20048 ft | 301 kts | 214° |
| 2026-05-04 01:30 | 33.46312 | 131.93239 | 19730 ft | 294 kts | 224° |
| 2026-05-04 01:30 | 33.44729 | 131.91745 | 19408 ft | 289 kts | 223° |
| 2026-05-04 01:30 | 33.43121 | 131.90225 | 19084 ft | 291 kts | 224° |
| 2026-05-04 01:30 | 33.41549 | 131.88741 | 18761 ft | 292 kts | 225° |
| 2026-05-04 01:31 | 33.39979 | 131.87254 | 18453 ft | 286 kts | 224° |
| 2026-05-04 01:31 | 33.38408 | 131.85770 | 18130 ft | 285 kts | 224° |
| 2026-05-04 01:31 | 33.36841 | 131.84290 | 17817 ft | 284 kts | 225° |
| 2026-05-04 01:31 | 33.35303 | 131.82837 | 17501 ft | 282 kts | 225° |
| 2026-05-04 01:32 | 33.33766 | 131.81386 | 17189 ft | 285 kts | 224° |
| 2026-05-04 01:32 | 33.32204 | 131.79912 | 16862 ft | 284 kts | 225° |
| 2026-05-04 01:32 | 33.30662 | 131.78458 | 16539 ft | 283 kts | 225° |
| 2026-05-04 01:32 | 33.29131 | 131.77013 | 16234 ft | 282 kts | 225° |
| 2026-05-04 01:33 | 33.27581 | 131.75551 | 15912 ft | 285 kts | 225° |
| 2026-05-04 01:33 | 33.26017 | 131.74080 | 15603 ft | 286 kts | 225° |
| 2026-05-04 01:33 | 33.24470 | 131.72623 | 15291 ft | 282 kts | 225° |
| 2026-05-04 01:33 | 33.22913 | 131.71158 | 14973 ft | 283 kts | 226° |
| 2026-05-04 01:34 | 33.21674 | 131.69443 | 14687 ft | 274 kts | 244° |
| 2026-05-04 01:34 | 33.20756 | 131.67412 | 14380 ft | 274 kts | 244° |
| 2026-05-04 01:34 | 33.19864 | 131.65411 | 14069 ft | 275 kts | 245° |
| 2026-05-04 01:34 | 33.18961 | 131.63379 | 13764 ft | 275 kts | 245° |
| 2026-05-04 01:35 | 33.18068 | 131.61365 | 13454 ft | 274 kts | 246° |
| 2026-05-04 01:35 | 33.17169 | 131.59338 | 13160 ft | 274 kts | 245° |
| 2026-05-04 01:35 | 33.16286 | 131.57347 | 12861 ft | 275 kts | 245° |
| 2026-05-04 01:35 | 33.15377 | 131.55296 | 12562 ft | 278 kts | 245° |
| 2026-05-04 01:36 | 33.14480 | 131.53278 | 12252 ft | 279 kts | 245° |
| 2026-05-04 01:36 | 33.13574 | 131.51239 | 11932 ft | 277 kts | 246° |
| 2026-05-04 01:36 | 33.12665 | 131.49194 | 11622 ft | 277 kts | 246° |
| 2026-05-04 01:36 | 33.11762 | 131.47188 | 11318 ft | 274 kts | 246° |
| 2026-05-04 01:37 | 33.10869 | 131.45203 | 11009 ft | 268 kts | 246° |
| 2026-05-04 01:37 | 33.09995 | 131.43268 | 10717 ft | 263 kts | 247° |
| 2026-05-04 01:37 | 33.09133 | 131.41354 | 10437 ft | 260 kts | 246° |
| 2026-05-04 01:37 | 33.08282 | 131.39468 | 10146 ft | 256 kts | 248° |
| 2026-05-04 01:38 | 33.07458 | 131.37640 | 9871 ft | 252 kts | 248° |
| 2026-05-04 01:38 | 33.06637 | 131.35822 | 9597 ft | 248 kts | 248° |
| 2026-05-04 01:38 | 33.05819 | 131.34009 | 9335 ft | 249 kts | 248° |
| 2026-05-04 01:38 | 33.04985 | 131.32164 | 9061 ft | 249 kts | 247° |
| 2026-05-04 01:39 | 33.04175 | 131.30371 | 8785 ft | 248 kts | 248° |
| 2026-05-04 01:39 | 33.03356 | 131.28561 | 8509 ft | 247 kts | 247° |
| 2026-05-04 01:39 | 33.02541 | 131.26761 | 8236 ft | 248 kts | 248° |
| 2026-05-04 01:39 | 33.01785 | 131.24908 | 7950 ft | 243 kts | 262° |
| 2026-05-04 01:40 | 33.01698 | 131.22951 | 7753 ft | 241 kts | 273° |
| 2026-05-04 01:40 | 33.01739 | 131.20964 | 7478 ft | 240 kts | 274° |
| 2026-05-04 01:40 | 33.01788 | 131.18973 | 7207 ft | 238 kts | 274° |
| 2026-05-04 01:40 | 33.01838 | 131.17042 | 6943 ft | 237 kts | 275° |
| 2026-05-04 01:41 | 33.01892 | 131.15073 | 6674 ft | 238 kts | 274° |
| 2026-05-04 01:41 | 33.01945 | 131.13107 | 6412 ft | 234 kts | 274° |
| 2026-05-04 01:41 | 33.01995 | 131.11246 | 6095 ft | 219 kts | 275° |
| 2026-05-04 01:41 | 33.02040 | 131.09505 | 5904 ft | 199 kts | 273° |
| 2026-05-04 01:42 | 33.01599 | 131.07970 | 5721 ft | 210 kts | 233° |
| 2026-05-04 01:42 | 33.00318 | 131.07054 | 5461 ft | 220 kts | 209° |
| 2026-05-04 01:42 | 32.98904 | 131.06429 | 5222 ft | 214 kts | 209° |
| 2026-05-04 01:42 | 32.97521 | 131.05829 | 4968 ft | 207 kts | 210° |
| 2026-05-04 01:43 | 32.96205 | 131.05264 | 4775 ft | 197 kts | 209° |
| 2026-05-04 01:43 | 32.94933 | 131.04719 | 4509 ft | 191 kts | 208° |
| 2026-05-04 01:43 | 32.93699 | 131.04195 | 4278 ft | 183 kts | 208° |
| 2026-05-04 01:43 | 32.92533 | 131.03700 | 4066 ft | 176 kts | 210° |
| 2026-05-04 01:44 | 32.91392 | 131.03217 | 3876 ft | 170 kts | 210° |
| 2026-05-04 01:44 | 32.90482 | 131.02563 | 3738 ft | 144 kts | 238° |
| 2026-05-04 01:44 | 32.89865 | 131.01691 | 3498 ft | 130 kts | 239° |
| 2026-05-04 01:44 | 32.89301 | 131.00867 | 3297 ft | 131 kts | 240° |
| 2026-05-04 01:45 | 32.88752 | 131.00064 | 3138 ft | 115 kts | 242° |
| 2026-05-04 01:45 | 32.88249 | 130.99321 | 2895 ft | 112 kts | 241° |
| 2026-05-04 01:45 | 32.87608 | 130.97754 | 2652 ft | 105 kts | 266° |
| 2026-05-04 01:46 | 32.87506 | 130.96889 | 2519 ft | 106 kts | 265° |
| 2026-05-04 01:46 | 32.87408 | 130.96013 | 2387 ft | 108 kts | 266° |
| 2026-05-04 01:46 | 32.87302 | 130.95106 | 2246 ft | 113 kts | 260° |
| 2026-05-04 01:46 | 32.87087 | 130.94206 | 2093 ft | 111 kts | 257° |
| 2026-05-04 01:47 | 32.86858 | 130.93324 | 1905 ft | 111 kts | 251° |
| 2026-05-04 01:47 | 32.86531 | 130.92493 | 1736 ft | 110 kts | 249° |
| 2026-05-04 01:47 | 32.86206 | 130.91684 | 1570 ft | 109 kts | 248° |
| 2026-05-04 01:47 | 32.85880 | 130.90868 | 1427 ft | 108 kts | 249° |
| 2026-05-04 01:48 | 32.85543 | 130.90063 | 1312 ft | 110 kts | 248° |
| 2026-05-04 01:48 | 32.85206 | 130.89191 | 1139 ft | 118 kts | 248° |
| 2026-05-04 01:48 | 32.84860 | 130.88313 | 949 ft | 120 kts | 248° |
| 2026-05-04 01:48 | 32.84501 | 130.87427 | 768 ft | 118 kts | 246° |
| 2026-05-04 01:49 | 32.84158 | 130.86571 | 641 ft | 108 kts | 246° |
| 2026-05-04 01:49 | 32.83933 | 130.85998 | 643 ft | 44 kts | 244° |
| 2026-05-04 01:49 | 32.83849 | 130.85790 | 640 ft | 13 kts | 244° |
| 2026-05-04 01:49 | 32.83837 | 130.85762 | 640 ft | 0 kts | 243° |
| 2026-05-04 01:50 | 32.83836 | 130.85761 | 640 ft | 2 kts | 244° |
| 2026-05-04 01:50 | 32.83808 | 130.85692 | 640 ft | 12 kts | 243° |
| 2026-05-04 01:50 | 32.83762 | 130.85577 | 638 ft | 17 kts | 241° |
| 2026-05-04 01:50 | 32.83702 | 130.85530 | 637 ft | 10 kts | 176° |
| 2026-05-04 01:51 | 32.83633 | 130.85564 | 636 ft | 10 kts | 156° |
| 2026-05-04 01:51 | 32.83625 | 130.85568 | 636 ft | 1 kts | 156° |
| 2026-05-04 01:51 | 32.83614 | 130.85574 | 636 ft | 2 kts | 157° |
| 2026-05-04 01:51 | 32.83596 | 130.85586 | 636 ft | 3 kts | 134° |
| 2026-05-04 01:52 | 32.83595 | 130.85616 | 636 ft | 4 kts | 85° |
| 2026-05-04 01:52 | 32.83581 | 130.85646 | 636 ft | 4 kts | 148° |
| 2026-05-04 01:52 | 32.83548 | 130.85666 | 636 ft | 5 kts | 154° |
| 2026-05-04 01:52 | 32.83512 | 130.85687 | 637 ft | 5 kts | 155° |
| 2026-05-04 01:53 | 32.83476 | 130.85707 | 637 ft | 5 kts | 154° |
| 2026-05-04 01:53 | 32.83468 | 130.85712 | 636 ft | 0 kts | 155° |